world map with KVLL marked

KVLL - Airport

This information may not be accurate or current and is not valid for navigation or flight planning. No warranty of fitness for any purpose is made or implied.

flag of Michiganflag of United States

Donate via PayPal

Additional information is available on the NEW Great Circle Mapper

Location
City:  Troy, Michigan, United States
Name:Oakland/Troy Airport
ICAO:KVLL
FAA:VLL

Details
Type:Airport (Airfield)
Use:Public/Civil
Latitude:42°32'35"N (42.542944)
Longitude:83°10'40"W (-83.177888)
Datum:WGS 1984
Elevation:727 ft (222 m)
Runways:1
Longest:3549 × 60 ft (1082 × 18.5 m)

Time
Timezone:UTC+29:08 (DST+32:08)
Local Time:

Weather
METAR:KVLL  261415Z AUTO 06007KT 10SM OVC027 00/M06 A3019 RMK AO2 T00001058

Related Locations
Nearby:
Farthest:MGV: 11285 mi / 18161 km
Margaret River, WA, AU

Find:

   beyond  
but within

Other Information
Maps:
Links:
Sources:

  

Sectional Chart

Flight Planning
at skyvector.com

 


Great Circle Mapper   Great Circle Mapper
Great Circle Mapper FAQ   Great Circle Mapper FAQ
  Karl's Home Page
KLSē   KLSē Home
   GC on Facebook
Airlines of the World   Airlines of the World
Donate via PayPal


Copyright © 2004-2014, Karl L. Swartz. All rights reserved.
All trademarks mentioned herein belong to their respective owners.

Please see credits for attribution and copyright information.

Karl Swartz <karl@kls2.com>
  Powered by FreeBSD
Valid HTML 4.01!
Labeled with ICRA
hCard Microformat
Geo Microformat